Time;durP1;ratioP1;P1;durP2;ratioP2;P2;SDS_P1;SDS_P2;PMS_P1;PMS_P2;Temp;Humidity;BMP_temperature;BMP_pressure;BME280_temperature;BME280_humidity;BME280_pressure;Samples;Min_cycle;Max_cycle;Signal;HPM_P1;HPM_P2
2022/01/03 00:02:22;;;;;;;19.38;3.20;;;;;;;;;;5006055;28;96863;-70
2022/01/03 00:04:48;;;;;;;16.20;3.65;;;;;;;;;;5000773;28;92505;-70
2022/01/03 00:07:15;;;;;;;20.67;3.40;;;;;;;;;;4997917;28;94086;-71
2022/01/03 00:09:42;;;;;;;15.55;2.85;;;;;;;;;;5007611;28;94195;-70
2022/01/03 00:12:08;;;;;;;18.10;3.70;;;;;;;;;;5002037;28;92485;-70
2022/01/03 00:14:35;;;;;;;22.25;4.20;;;;;;;;;;5003852;28;93027;-71
2022/01/03 00:17:02;;;;;;;20.80;3.90;;;;;;;;;;5004378;28;93371;-70
2022/01/03 00:19:28;;;;;;;22.33;4.80;;;;;;;;;;5010326;28;94182;-71
2022/01/03 00:21:57;;;;;;;29.55;5.00;;;;;;;;;;5000867;28;92796;-70
2022/01/03 00:24:24;;;;;;;23.42;4.13;;;;;;;;;;5001217;28;92520;-71
2022/01/03 00:26:56;;;;;;;23.15;3.47;;;;;;;;;;4995874;28;94883;-70
2022/01/03 00:29:25;;;;;;;16.38;3.70;;;;;;;;;;5000647;28;94064;-71
2022/01/03 00:31:55;;;;;;;16.70;3.65;;;;;;;;;;4997823;28;95333;-71
2022/01/03 00:34:23;;;;;;;29.73;4.30;;;;;;;;;;5000967;28;92872;-71
2022/01/03 00:36:51;;;;;;;21.67;3.50;;;;;;;;;;4998836;28;93252;-70
2022/01/03 00:39:17;;;;;;;22.67;4.70;;;;;;;;;;5004601;28;92860;-71
2022/01/03 00:41:46;;;;;;;26.10;4.50;;;;;;;;;;5009787;28;95378;-71
2022/01/03 00:44:12;;;;;;;24.90;4.55;;;;;;;;;;5001317;28;93110;-71
2022/01/03 00:46:39;;;;;;;18.83;4.35;;;;;;;;;;5003807;28;94320;-71
2022/01/03 00:49:05;;;;;;;23.95;4.82;;;;;;;;;;4999595;28;94180;-70
2022/01/03 00:51:32;;;;;;;24.33;4.15;;;;;;;;;;4999494;28;94933;-70
2022/01/03 00:53:58;;;;;;;22.52;3.95;;;;;;;;;;5005726;28;95575;-71
2022/01/03 00:56:36;;;;;;;29.98;4.97;;;;;;;;;;5001785;28;93425;-71
2022/01/03 00:59:09;;;;;;;19.65;3.80;;;;;;;;;;5001441;28;93254;-71
2022/01/03 01:01:44;;;;;;;24.88;4.97;;;;;;;;;;4999758;28;95492;-71
2022/01/03 01:04:13;;;;;;;20.48;5.20;;;;;;;;;;4990244;28;93483;-70
2022/01/03 01:06:43;;;;;;;24.25;5.05;;;;;;;;;;5001421;28;94040;-70
2022/01/03 01:09:12;;;;;;;25.17;3.75;;;;;;;;;;5004062;28;93572;-70
2022/01/03 01:11:43;;;;;;;29.08;4.93;;;;;;;;;;5001848;28;92536;-70
2022/01/03 01:14:12;;;;;;;;;;;;;;;;;;4999010;28;94065;-70
2022/01/03 01:16:38;;;;;;;18.55;4.38;;;;;;;;;;5000667;28;98199;-70
2022/01/03 01:19:05;;;;;;;25.85;4.68;;;;;;;;;;4999780;28;94001;-70
2022/01/03 01:21:32;;;;;;;21.58;4.18;;;;;;;;;;5000062;28;95022;-70
2022/01/03 01:23:59;;;;;;;28.13;4.50;;;;;;;;;;4999470;28;92537;-70
2022/01/03 01:29:13;;;;;;;33.65;5.10;;;;;;;;;;4998045;28;93506;-70
2022/01/03 01:31:45;;;;;;;25.27;4.93;;;;;;;;;;4999376;28;92572;-70
2022/01/03 01:34:14;;;;;;;29.80;4.95;;;;;;;;;;5002193;28;95031;-70
2022/01/03 01:36:41;;;;;;;27.83;5.45;;;;;;;;;;4991966;28;95747;-70
2022/01/03 01:39:10;;;;;;;31.92;5.18;;;;;;;;;;5002882;28;93048;-70
2022/01/03 01:41:43;;;;;;;28.42;5.50;;;;;;;;;;4998917;28;96806;-70
2022/01/03 01:44:10;;;;;;;24.73;4.15;;;;;;;;;;5006898;28;93300;-70
2022/01/03 01:46:46;;;;;;;28.88;4.28;;;;;;;;;;4995143;28;94189;-70
2022/01/03 01:49:18;;;;;;;28.35;5.68;;;;;;;;;;4992086;28;95497;-71
2022/01/03 01:51:49;;;;;;;28.52;4.72;;;;;;;;;;5013810;27;92509;-70
2022/01/03 01:54:16;;;;;;;35.92;5.47;;;;;;;;;;4999302;28;93866;-71
2022/01/03 01:56:53;;;;;;;28.17;5.07;;;;;;;;;;4993382;28;93427;-71
2022/01/03 01:59:33;;;;;;;27.48;5.50;;;;;;;;;;5006770;28;91751;-71
2022/01/03 02:02:04;;;;;;;27.33;4.90;;;;;;;;;;5016314;28;94423;-71
2022/01/03 02:04:58;;;;;;;31.63;4.93;;;;;;;;;;4998617;28;95688;-69
2022/01/03 02:07:27;;;;;;;;;;;;;;;;;;5002299;28;94974;-69
2022/01/03 02:10:07;;;;;;;20.30;4.53;;;;;;;;;;4996515;28;124479;-70
2022/01/03 02:12:39;;;;;;;23.15;5.45;;;;;;;;;;5002440;28;92668;-69
2022/01/03 02:15:11;;;;;;;29.95;5.43;;;;;;;;;;4999337;28;95806;-70
2022/01/03 02:17:39;;;;;;;35.63;5.10;;;;;;;;;;5000605;28;95241;-70
2022/01/03 02:20:10;;;;;;;36.05;4.85;;;;;;;;;;5000841;28;92638;-70
2022/01/03 02:22:37;;;;;;;28.20;5.35;;;;;;;;;;4999856;28;94735;-70
2022/01/03 02:25:06;;;;;;;29.52;5.38;;;;;;;;;;5020207;28;94622;-71
2022/01/03 02:27:32;;;;;;;29.83;5.43;;;;;;;;;;4998270;28;93531;-70
2022/01/03 02:29:59;;;;;;;39.22;5.72;;;;;;;;;;5011437;28;92965;-70
2022/01/03 02:32:26;;;;;;;33.75;5.78;;;;;;;;;;4996921;28;94901;-70
2022/01/03 02:34:53;;;;;;;22.95;5.45;;;;;;;;;;5008648;28;98111;-70
2022/01/03 02:37:26;;;;;;;;;;;;;;;;;;5008796;28;95750;-70
2022/01/03 02:39:52;;;;;;;28.63;5.65;;;;;;;;;;5002915;28;116918;-70
2022/01/03 02:42:23;;;;;;;28.50;5.32;;;;;;;;;;5004153;28;95114;-70
2022/01/03 02:44:58;;;;;;;30.92;5.38;;;;;;;;;;4995575;28;95098;-70
2022/01/03 02:47:25;;;;;;;29.45;6.13;;;;;;;;;;4990692;28;92492;-69
2022/01/03 02:49:51;;;;;;;40.78;6.25;;;;;;;;;;4993007;28;93224;-70
2022/01/03 02:52:19;;;;;;;32.47;7.20;;;;;;;;;;5008313;28;92630;-70
2022/01/03 02:54:46;;;;;;;43.47;6.90;;;;;;;;;;5004452;28;92702;-70
2022/01/03 02:57:13;;;;;;;34.10;5.32;;;;;;;;;;4997980;28;95617;-70
2022/01/03 02:59:39;;;;;;;35.90;6.63;;;;;;;;;;5007494;28;92763;-69
2022/01/03 03:02:06;;;;;;;38.78;6.13;;;;;;;;;;5011886;28;92706;-70
2022/01/03 03:04:49;;;;;;;37.50;6.47;;;;;;;;;;5020245;27;92653;-70
2022/01/03 03:07:17;;;;;;;31.73;5.75;;;;;;;;;;5001340;28;92552;-70
2022/01/03 03:09:43;;;;;;;40.42;5.68;;;;;;;;;;5011519;28;95380;-70
2022/01/03 03:12:10;;;;;;;36.67;6.68;;;;;;;;;;4999470;28;94061;-70
2022/01/03 03:14:38;;;;;;;41.50;7.82;;;;;;;;;;5004157;28;97840;-70
2022/01/03 03:17:05;;;;;;;35.45;7.05;;;;;;;;;;5001311;28;94730;-70
2022/01/03 03:19:32;;;;;;;35.22;5.18;;;;;;;;;;4991935;28;92592;-70
2022/01/03 03:21:59;;;;;;;39.47;8.68;;;;;;;;;;5000108;28;94956;-70
2022/01/03 03:24:26;;;;;;;38.72;6.38;;;;;;;;;;5003294;28;93467;-70
2022/01/03 03:26:53;;;;;;;39.40;5.55;;;;;;;;;;4999687;28;92440;-70
2022/01/03 03:29:19;;;;;;;52.85;7.70;;;;;;;;;;5004235;28;92810;-70
2022/01/03 03:31:46;;;;;;;43.50;7.78;;;;;;;;;;5000009;28;94165;-70
2022/01/03 03:34:13;;;;;;;46.42;6.60;;;;;;;;;;5010518;28;93143;-70
2022/01/03 03:36:39;;;;;;;48.97;7.90;;;;;;;;;;5004561;28;96069;-70
2022/01/03 03:39:06;;;;;;;47.60;6.43;;;;;;;;;;5000256;28;92841;-70
2022/01/03 03:41:33;;;;;;;30.90;5.78;;;;;;;;;;4997586;28;94393;-70
2022/01/03 03:44:00;;;;;;;30.27;6.28;;;;;;;;;;4992715;28;95913;-70
2022/01/03 03:46:26;;;;;;;44.97;6.25;;;;;;;;;;5000580;28;94945;-70
2022/01/03 03:48:53;;;;;;;39.33;6.00;;;;;;;;;;5009544;28;97956;-69
2022/01/03 03:51:22;;;;;;;39.53;7.20;;;;;;;;;;5017204;28;92638;-70
2022/01/03 03:53:51;;;;;;;37.58;5.93;;;;;;;;;;5014709;27;93484;-70
2022/01/03 03:56:20;;;;;;;40.95;7.07;;;;;;;;;;5022247;28;94906;-70
2022/01/03 03:58:47;;;;;;;47.22;6.80;;;;;;;;;;5015717;28;92447;-70
2022/01/03 04:01:14;;;;;;;42.45;6.80;;;;;;;;;;5010237;27;93437;-70
2022/01/03 04:03:46;;;;;;;44.30;6.22;;;;;;;;;;5000187;28;93435;-70
2022/01/03 04:06:14;;;;;;;46.25;6.72;;;;;;;;;;5009966;28;92456;-70
2022/01/03 04:08:42;;;;;;;48.80;7.63;;;;;;;;;;5009248;28;93688;-70
2022/01/03 04:11:09;;;;;;;44.97;7.95;;;;;;;;;;4991195;28;97700;-70
2022/01/03 04:13:36;;;;;;;61.42;7.68;;;;;;;;;;5011687;28;94101;-71
2022/01/03 04:16:05;;;;;;;41.10;7.80;;;;;;;;;;5002858;28;94226;-70
2022/01/03 04:18:32;;;;;;;53.70;8.45;;;;;;;;;;5014045;28;94755;-70
2022/01/03 04:20:59;;;;;;;51.65;7.32;;;;;;;;;;5000131;28;94501;-70
2022/01/03 04:23:25;;;;;;;38.72;6.68;;;;;;;;;;5001284;28;95938;-70
2022/01/03 04:25:52;;;;;;;55.42;8.85;;;;;;;;;;5000923;28;92507;-70
2022/01/03 04:28:20;;;;;;;44.92;7.65;;;;;;;;;;5002385;28;92953;-70
2022/01/03 04:30:46;;;;;;;55.53;7.72;;;;;;;;;;4998873;28;96434;-69
2022/01/03 04:33:13;;;;;;;32.17;5.72;;;;;;;;;;4992797;28;92517;-70
2022/01/03 04:35:40;;;;;;;40.90;6.75;;;;;;;;;;4997984;28;95227;-69
2022/01/03 04:38:07;;;;;;;46.58;7.47;;;;;;;;;;5010403;28;95312;-69
2022/01/03 04:40:33;;;;;;;62.78;9.30;;;;;;;;;;4999454;28;93824;-70
2022/01/03 04:43:00;;;;;;;43.08;6.88;;;;;;;;;;4993266;28;92966;-70
2022/01/03 04:45:26;;;;;;;43.75;7.57;;;;;;;;;;4996142;28;92507;-70
2022/01/03 04:47:53;;;;;;;46.17;7.38;;;;;;;;;;5014240;27;94153;-69
2022/01/03 04:50:19;;;;;;;48.70;8.93;;;;;;;;;;4994443;28;93166;-70
2022/01/03 04:52:45;;;;;;;51.55;6.53;;;;;;;;;;5007137;28;91795;-70
2022/01/03 04:55:12;;;;;;;45.42;7.82;;;;;;;;;;4989887;28;93534;-69
2022/01/03 04:57:39;;;;;;;47.63;6.97;;;;;;;;;;5004971;27;95436;-69
2022/01/03 05:00:06;;;;;;;49.35;7.32;;;;;;;;;;4998634;28;95566;-69
2022/01/03 05:02:33;;;;;;;53.58;7.72;;;;;;;;;;5012399;27;95070;-69
2022/01/03 05:05:00;;;;;;;50.55;7.45;;;;;;;;;;4993404;28;92545;-70
2022/01/03 05:07:27;;;;;;;45.95;7.88;;;;;;;;;;5003858;28;92947;-70
2022/01/03 05:09:54;;;;;;;66.20;8.57;;;;;;;;;;4998281;28;94433;-70
2022/01/03 05:12:21;;;;;;;53.47;7.70;;;;;;;;;;5003335;28;92663;-70
2022/01/03 05:14:47;;;;;;;40.22;6.88;;;;;;;;;;5001615;28;93008;-70
2022/01/03 05:17:15;;;;;;;51.38;8.20;;;;;;;;;;5003201;28;92791;-70
2022/01/03 05:19:41;;;;;;;56.13;7.35;;;;;;;;;;4990600;28;94025;-70
2022/01/03 05:22:08;;;;;;;47.03;8.23;;;;;;;;;;5004133;28;93882;-69
2022/01/03 05:24:35;;;;;;;58.17;8.80;;;;;;;;;;4988550;28;97814;-70
2022/01/03 05:27:03;;;;;;;38.38;7.13;;;;;;;;;;5008317;28;97961;-69
2022/01/03 05:29:29;;;;;;;46.35;7.80;;;;;;;;;;5001042;28;95625;-69
2022/01/03 05:31:56;;;;;;;46.92;7.25;;;;;;;;;;5006534;28;93162;-69
2022/01/03 05:34:22;;;;;;;51.53;7.85;;;;;;;;;;5001025;28;92923;-70
2022/01/03 05:36:50;;;;;;;50.65;7.82;;;;;;;;;;4991206;28;95015;-70
2022/01/03 05:39:18;;;;;;;47.53;7.70;;;;;;;;;;5001533;28;92598;-70
2022/01/03 05:41:45;;;;;;;42.30;6.68;;;;;;;;;;5008745;28;94485;-69
2022/01/03 05:44:11;;;;;;;49.67;8.10;;;;;;;;;;5004489;28;94573;-70
2022/01/03 05:46:39;;;;;;;43.10;7.68;;;;;;;;;;5000372;28;95499;-70
2022/01/03 05:49:07;;;;;;;48.72;9.85;;;;;;;;;;5000288;28;97307;-69
2022/01/03 05:51:34;;;;;;;55.60;7.82;;;;;;;;;;5011133;28;93412;-69
2022/01/03 05:54:01;;;;;;;47.13;7.43;;;;;;;;;;5005629;28;94416;-70
2022/01/03 05:56:27;;;;;;;46.30;7.78;;;;;;;;;;5003103;28;93496;-70
2022/01/03 05:58:54;;;;;;;39.50;6.68;;;;;;;;;;5003663;28;92442;-70
2022/01/03 06:01:23;;;;;;;41.40;6.72;;;;;;;;;;4997940;28;95632;-70
2022/01/03 06:03:59;;;;;;;35.30;6.43;;;;;;;;;;5001924;28;92497;-70
2022/01/03 06:06:53;;;;;;;33.50;6.53;;;;;;;;;;5007200;28;92930;-69
2022/01/03 06:09:16;;;;;;;49.25;7.20;;;;;;;;;;5005991;28;93179;-70
2022/01/03 06:11:43;;;;;;;49.22;7.22;;;;;;;;;;4997038;28;92474;-70
2022/01/03 06:14:09;;;;;;;44.60;7.18;;;;;;;;;;5000648;28;96190;-70
2022/01/03 06:16:36;;;;;;;35.35;5.82;;;;;;;;;;5005883;28;94412;-69
2022/01/03 06:19:02;;;;;;;45.42;6.82;;;;;;;;;;5008085;28;92560;-69
2022/01/03 06:21:30;;;;;;;48.45;7.05;;;;;;;;;;5002379;28;95753;-69
2022/01/03 06:23:56;;;;;;;62.38;8.30;;;;;;;;;;5000577;28;95822;-69
2022/01/03 06:26:24;;;;;;;51.35;6.85;;;;;;;;;;5009312;28;92585;-69
2022/01/03 06:28:51;;;;;;;41.90;7.18;;;;;;;;;;5006105;28;95682;-69
2022/01/03 06:31:21;;;;;;;58.28;10.15;;;;;;;;;;5004280;28;92074;-69
2022/01/03 06:33:48;;;;;;;37.80;5.75;;;;;;;;;;5003869;28;95394;-70
2022/01/03 06:36:15;;;;;;;46.65;7.70;;;;;;;;;;5002998;28;94317;-69
2022/01/03 06:38:41;;;;;;;40.47;6.65;;;;;;;;;;4994779;28;96462;-69
2022/01/03 06:41:09;;;;;;;53.28;7.00;;;;;;;;;;5000647;28;96526;-69
2022/01/03 06:43:36;;;;;;;37.47;7.32;;;;;;;;;;5008556;28;94916;-70
2022/01/03 06:46:03;;;;;;;41.58;6.90;;;;;;;;;;4985119;28;92643;-70
2022/01/03 06:48:30;;;;;;;50.30;6.85;;;;;;;;;;4977574;28;93208;-68
2022/01/03 06:50:56;;;;;;;39.58;5.18;;;;;;;;;;4984947;28;94565;-68
2022/01/03 06:53:23;;;;;;;43.45;6.13;;;;;;;;;;4985409;28;95471;-68
2022/01/03 06:55:50;;;;;;;28.75;5.63;;;;;;;;;;4974845;28;94744;-68
2022/01/03 06:58:16;;;;;;;40.13;7.10;;;;;;;;;;4981259;28;93124;-69
2022/01/03 07:00:43;;;;;;;43.90;7.00;;;;;;;;;;4992941;28;93994;-69
2022/01/03 07:03:10;;;;;;;35.95;6.63;;;;;;;;;;5024611;27;96117;-71
2022/01/03 07:05:36;;;;;;;44.90;7.93;;;;;;;;;;4985949;28;92537;-70
2022/01/03 07:08:07;;;;;;;40.65;6.68;;;;;;;;;;4980154;28;94102;-69
2022/01/03 07:10:33;;;;;;;36.60;6.88;;;;;;;;;;4984548;28;96417;-69
2022/01/03 07:13:00;;;;;;;46.28;6.68;;;;;;;;;;4976253;28;93863;-70
2022/01/03 07:20:56;;;;;;;39.17;6.13;;;;;;;;;;4975939;28;93278;-68
2022/01/03 07:23:23;;;;;;;35.53;6.05;;;;;;;;;;4975816;28;94258;-69
2022/01/03 07:25:51;;;;;;;38.20;6.40;;;;;;;;;;4987456;28;93155;-70
2022/01/03 07:28:18;;;;;;;38.70;5.78;;;;;;;;;;4973817;28;94899;-70
2022/01/03 07:30:44;;;;;;;39.42;6.57;;;;;;;;;;4974680;28;94264;-69
2022/01/03 07:33:11;;;;;;;38.25;5.90;;;;;;;;;;4977465;28;92483;-69
2022/01/03 07:35:37;;;;;;;40.55;5.45;;;;;;;;;;4974216;28;93919;-69
2022/01/03 07:38:04;;;;;;;41.22;6.53;;;;;;;;;;4974284;28;92570;-69
2022/01/03 07:40:30;;;;;;;36.80;6.15;;;;;;;;;;4981474;28;94132;-69
2022/01/03 07:42:57;;;;;;;35.88;6.20;;;;;;;;;;4974609;28;93539;-69
2022/01/03 07:45:24;;;;;;;35.63;5.45;;;;;;;;;;4982025;28;92441;-69
2022/01/03 07:47:51;;;;;;;32.95;5.90;;;;;;;;;;4982264;28;93146;-69
2022/01/03 07:50:17;;;;;;;33.30;5.75;;;;;;;;;;4974483;28;93902;-69
2022/01/03 07:52:43;;;;;;;43.22;6.22;;;;;;;;;;4976628;28;95477;-69
2022/01/03 07:55:11;;;;;;;36.50;6.65;;;;;;;;;;4983611;28;96209;-69
2022/01/03 07:57:37;;;;;;;38.63;7.13;;;;;;;;;;4974735;28;92643;-69
2022/01/03 08:00:06;;;;;;;38.55;6.82;;;;;;;;;;4974269;28;94064;-69
2022/01/03 08:02:41;;;;;;;32.20;6.30;;;;;;;;;;4986084;28;93082;-69
2022/01/03 08:05:09;;;;;;;42.50;7.57;;;;;;;;;;4987167;28;92536;-69
2022/01/03 08:07:35;;;;;;;35.00;5.95;;;;;;;;;;4984931;28;93892;-70
2022/01/03 08:10:05;;;;;;;29.95;6.50;;;;;;;;;;4986746;28;93943;-71
2022/01/03 08:12:31;;;;;;;36.15;6.22;;;;;;;;;;4987478;28;92720;-69
2022/01/03 08:14:58;;;;;;;41.20;8.40;;;;;;;;;;4974424;28;93119;-69
2022/01/03 08:17:25;;;;;;;37.67;6.00;;;;;;;;;;4975566;28;98059;-69
2022/01/03 08:19:51;;;;;;;27.25;5.05;;;;;;;;;;4973617;28;97355;-69
2022/01/03 08:22:18;;;;;;;30.15;5.03;;;;;;;;;;4972799;28;94095;-70
2022/01/03 08:24:44;;;;;;;39.10;5.68;;;;;;;;;;4973537;28;93033;-70
2022/01/03 08:27:11;;;;;;;34.42;5.68;;;;;;;;;;4973797;28;93984;-69
2022/01/03 08:29:37;;;;;;;35.42;6.22;;;;;;;;;;4979988;28;93432;-69
2022/01/03 08:32:04;;;;;;;35.00;5.80;;;;;;;;;;4973810;28;93021;-70
2022/01/03 08:34:31;;;;;;;35.95;6.22;;;;;;;;;;4979221;28;93226;-70
2022/01/03 08:37:01;;;;;;;28.77;5.90;;;;;;;;;;4981423;28;93118;-71
2022/01/03 08:39:27;;;;;;;32.58;5.18;;;;;;;;;;4977398;28;92665;-71
2022/01/03 08:41:54;;;;;;;35.75;5.63;;;;;;;;;;4979456;28;96637;-71
2022/01/03 08:44:20;;;;;;;36.03;4.95;;;;;;;;;;4975000;28;92584;-69
2022/01/03 08:46:48;;;;;;;42.70;6.13;;;;;;;;;;4981908;28;92998;-69
2022/01/03 08:49:15;;;;;;;37.83;6.85;;;;;;;;;;4972429;28;94276;-69
2022/01/03 08:51:41;;;;;;;26.60;4.47;;;;;;;;;;4973632;28;92529;-70
2022/01/03 08:54:07;;;;;;;50.88;5.97;;;;;;;;;;4981230;28;93980;-70
2022/01/03 08:56:34;;;;;;;47.08;7.57;;;;;;;;;;4972665;28;94893;-70
2022/01/03 08:59:02;;;;;;;37.97;6.47;;;;;;;;;;4974135;28;91804;-70
2022/01/03 09:01:28;;;;;;;44.70;6.68;;;;;;;;;;4976074;28;93845;-70
2022/01/03 09:03:55;;;;;;;32.55;6.07;;;;;;;;;;4980000;28;92482;-70
2022/01/03 09:06:22;;;;;;;36.13;5.93;;;;;;;;;;4987814;28;95570;-70
2022/01/03 09:08:48;;;;;;;37.03;6.50;;;;;;;;;;4975032;28;94284;-70
2022/01/03 09:11:15;;;;;;;41.30;6.43;;;;;;;;;;4981022;28;92541;-70
2022/01/03 09:13:41;;;;;;;33.35;5.57;;;;;;;;;;4982254;28;93951;-70
2022/01/03 09:16:08;;;;;;;30.92;5.68;;;;;;;;;;4979548;28;94530;-70
2022/01/03 09:18:35;;;;;;;35.40;6.68;;;;;;;;;;4975441;28;93714;-70
2022/01/03 09:21:01;;;;;;;33.22;6.18;;;;;;;;;;4987236;28;93166;-70
2022/01/03 09:23:32;;;;;;;36.80;6.07;;;;;;;;;;4973496;28;91732;-69
2022/01/03 09:28:49;;;;;;;31.73;5.88;;;;;;;;;;4972898;28;93524;-70
2022/01/03 09:31:17;;;;;;;30.80;5.95;;;;;;;;;;4976693;28;94935;-70
2022/01/03 09:33:43;;;;;;;33.10;5.55;;;;;;;;;;4973659;28;96981;-70
2022/01/03 09:36:09;;;;;;;33.42;5.35;;;;;;;;;;4982551;28;92627;-70
2022/01/03 09:38:36;;;;;;;45.67;6.68;;;;;;;;;;4980871;28;92505;-70
2022/01/03 09:41:04;;;;;;;33.85;5.65;;;;;;;;;;4976918;28;93010;-70
2022/01/03 09:43:41;;;;;;;37.25;6.63;;;;;;;;;;4987811;28;94287;-71
2022/01/03 09:46:09;;;;;;;39.83;6.43;;;;;;;;;;4982463;28;93869;-71
2022/01/03 09:48:37;;;;;;;36.35;7.32;;;;;;;;;;4978458;28;92896;-71
2022/01/03 09:51:04;;;;;;;35.97;6.00;;;;;;;;;;4981652;28;92598;-71
2022/01/03 09:53:32;;;;;;;28.42;5.32;;;;;;;;;;4975526;28;94075;-71
2022/01/03 09:55:59;;;;;;;39.47;5.68;;;;;;;;;;4974282;28;96871;-70
2022/01/03 09:58:26;;;;;;;34.42;5.97;;;;;;;;;;4984260;28;92516;-71
2022/01/03 10:00:52;;;;;;;35.28;6.05;;;;;;;;;;4978790;28;93880;-70
2022/01/03 10:03:19;;;;;;;36.42;6.95;;;;;;;;;;4987567;28;94215;-69
2022/01/03 10:05:46;;;;;;;44.50;7.00;;;;;;;;;;4979304;28;92480;-70
2022/01/03 10:08:12;;;;;;;37.88;6.53;;;;;;;;;;4980715;28;94125;-70
2022/01/03 10:10:39;;;;;;;30.52;5.40;;;;;;;;;;4978209;28;92511;-70
2022/01/03 10:13:05;;;;;;;35.28;5.63;;;;;;;;;;4982508;28;93276;-70
2022/01/03 10:15:32;;;;;;;46.15;7.40;;;;;;;;;;4975655;28;93267;-70
2022/01/03 10:17:59;;;;;;;34.67;5.80;;;;;;;;;;4983578;28;93231;-70
2022/01/03 10:20:27;;;;;;;27.58;6.07;;;;;;;;;;4973689;28;94914;-71
2022/01/03 10:23:06;;;;;;;40.55;5.95;;;;;;;;;;4977984;28;94671;-70
2022/01/03 10:25:34;;;;;;;39.83;6.75;;;;;;;;;;4978987;28;92478;-70
2022/01/03 10:28:00;;;;;;;27.35;5.28;;;;;;;;;;4986459;28;94026;-70
2022/01/03 10:30:33;;;;;;;42.97;6.55;;;;;;;;;;4975709;28;92469;-70
2022/01/03 10:32:59;;;;;;;41.65;7.53;;;;;;;;;;4975962;28;93375;-70
2022/01/03 10:35:26;;;;;;;43.65;6.88;;;;;;;;;;4975174;28;93487;-70
2022/01/03 10:37:53;;;;;;;33.78;5.82;;;;;;;;;;4976075;28;91769;-70
2022/01/03 10:40:25;;;;;;;38.63;6.72;;;;;;;;;;4980390;28;94199;-70
2022/01/03 10:42:52;;;;;;;31.08;5.28;;;;;;;;;;4984073;28;93513;-71
2022/01/03 10:45:29;;;;;;;33.17;5.45;;;;;;;;;;4974383;28;94897;-71
2022/01/03 10:47:55;;;;;;;31.80;5.65;;;;;;;;;;4974099;28;96439;-71
2022/01/03 10:50:22;;;;;;;38.08;6.85;;;;;;;;;;4984844;28;94448;-71
2022/01/03 10:52:49;;;;;;;35.20;6.10;;;;;;;;;;4975764;28;93503;-71
2022/01/03 10:55:19;;;;;;;35.40;5.05;;;;;;;;;;4980779;28;92658;-70
2022/01/03 10:57:48;;;;;;;42.10;5.45;;;;;;;;;;4988235;28;92601;-69
2022/01/03 11:00:15;;;;;;;33.85;6.57;;;;;;;;;;4981501;28;93346;-68
2022/01/03 11:03:03;;;;;;;30.10;6.57;;;;;;;;;;4975799;28;92765;-69
2022/01/03 11:05:42;;;;;;;47.10;8.10;;;;;;;;;;4974875;28;92472;-69
2022/01/03 11:10:44;;;;;;;38.13;6.18;;;;;;;;;;4978609;28;95937;-69
2022/01/03 11:13:10;;;;;;;30.42;6.60;;;;;;;;;;4976651;28;92468;-69
2022/01/03 11:15:37;;;;;;;33.42;6.38;;;;;;;;;;4988183;28;93592;-69
2022/01/03 11:18:24;;;;;;;35.75;7.13;;;;;;;;;;4981539;28;93093;-71
2022/01/03 11:21:02;;;;;;;26.45;5.57;;;;;;;;;;4982131;28;93357;-70
2022/01/03 11:23:31;;;;;;;33.97;5.93;;;;;;;;;;4980008;28;93312;-71
2022/01/03 11:25:58;;;;;;;40.97;6.63;;;;;;;;;;4981712;28;92413;-70
2022/01/03 11:28:29;;;;;;;43.88;6.82;;;;;;;;;;4982740;28;91890;-70
2022/01/03 11:30:57;;;;;;;33.83;5.25;;;;;;;;;;5005221;28;93521;-70
2022/01/03 11:33:25;;;;;;;39.92;6.15;;;;;;;;;;5014300;28;92862;-70
2022/01/03 11:36:11;;;;;;;41.08;6.97;;;;;;;;;;5002262;28;96496;-70
2022/01/03 11:38:38;;;;;;;35.30;6.88;;;;;;;;;;4998455;28;92506;-70
2022/01/03 11:41:06;;;;;;;36.47;6.05;;;;;;;;;;5006109;28;94408;-70
2022/01/03 11:43:33;;;;;;;24.70;4.72;;;;;;;;;;5005447;28;94305;-70
2022/01/03 11:46:00;;;;;;;36.80;6.55;;;;;;;;;;5003740;28;92577;-70
2022/01/03 11:48:28;;;;;;;29.67;4.40;;;;;;;;;;5010692;28;93104;-70
2022/01/03 11:50:57;;;;;;;50.28;7.57;;;;;;;;;;5004859;28;94327;-70
2022/01/03 11:53:24;;;;;;;32.10;6.03;;;;;;;;;;5003221;28;91804;-70
2022/01/03 11:55:54;;;;;;;40.65;6.90;;;;;;;;;;5014179;28;93264;-70
2022/01/03 11:58:45;;;;;;;36.17;6.22;;;;;;;;;;5010015;28;92640;-70
2022/01/03 12:03:58;;;;;;;32.13;5.20;;;;;;;;;;5004826;28;93923;-70
2022/01/03 12:06:29;;;;;;;22.80;5.50;;;;;;;;;;5003673;28;94319;-70
2022/01/03 12:08:56;;;;;;;33.97;5.57;;;;;;;;;;5005380;28;94305;-70
2022/01/03 12:11:24;;;;;;;31.42;6.30;;;;;;;;;;5003660;28;94478;-70
2022/01/03 12:13:52;;;;;;;29.10;5.65;;;;;;;;;;4995879;28;92520;-70
2022/01/03 12:16:35;;;;;;;28.23;5.43;;;;;;;;;;5004378;28;93350;-70
2022/01/03 12:19:02;;;;;;;37.42;6.35;;;;;;;;;;5007283;28;93740;-69
2022/01/03 12:21:47;;;;;;;34.00;5.53;;;;;;;;;;5010694;28;93932;-70
2022/01/03 12:24:28;;;;;;;32.78;5.80;;;;;;;;;;5007560;28;93404;-70
2022/01/03 12:27:11;;;;;;;40.78;6.55;;;;;;;;;;5008537;28;95040;-70
2022/01/03 12:29:49;;;;;;;25.50;5.67;;;;;;;;;;5003692;28;96478;-70
2022/01/03 12:32:16;;;;;;;36.47;6.20;;;;;;;;;;4998406;28;93557;-70
2022/01/03 12:34:42;;;;;;;33.65;7.28;;;;;;;;;;5003491;28;92548;-70
2022/01/03 12:37:20;;;;;;;22.20;5.35;;;;;;;;;;5004070;28;94250;-70
2022/01/03 12:40:01;;;;;;;29.25;5.78;;;;;;;;;;5011088;28;94393;-70
2022/01/03 12:42:46;;;;;;;27.13;5.28;;;;;;;;;;4997126;28;92827;-70
2022/01/03 12:45:13;;;;;;;24.23;5.18;;;;;;;;;;5001461;28;92721;-70
2022/01/03 12:47:39;;;;;;;29.17;5.18;;;;;;;;;;5005766;28;92492;-70
2022/01/03 12:50:21;;;;;;;41.75;5.20;;;;;;;;;;5010415;28;93963;-70
2022/01/03 12:52:48;;;;;;;33.00;5.13;;;;;;;;;;5000080;28;95844;-70
2022/01/03 12:55:43;;;;;;;27.35;4.55;;;;;;;;;;5007389;28;92454;-70
2022/01/03 12:58:19;;;;;;;32.20;7.90;;;;;;;;;;4999972;28;93864;-70
2022/01/03 13:00:48;;;;;;;32.20;5.15;;;;;;;;;;5002437;28;94166;-70
2022/01/03 13:03:47;;;;;;;22.65;4.38;;;;;;;;;;4999890;28;92555;-70
2022/01/03 13:06:15;;;;;;;22.10;4.53;;;;;;;;;;5005695;28;93618;-70
2022/01/03 13:08:42;;;;;;;31.50;5.80;;;;;;;;;;4992246;28;93024;-70
2022/01/03 13:11:11;;;;;;;27.70;5.45;;;;;;;;;;5006684;28;93368;-71
2022/01/03 13:13:38;;;;;;;25.40;4.93;;;;;;;;;;4989058;28;93970;-71
2022/01/03 13:16:17;;;;;;;30.63;4.88;;;;;;;;;;4972497;28;93461;-70
2022/01/03 13:18:45;;;;;;;21.67;5.15;;;;;;;;;;4971795;28;96303;-70
2022/01/03 13:21:12;;;;;;;26.45;5.00;;;;;;;;;;4972538;28;94099;-69
2022/01/03 13:23:39;;;;;;;30.30;7.00;;;;;;;;;;4972756;28;93133;-70
2022/01/03 13:26:06;;;;;;;25.60;5.25;;;;;;;;;;4976080;28;92831;-70
2022/01/03 13:28:43;;;;;;;27.60;4.32;;;;;;;;;;4990933;28;92582;-71
2022/01/03 13:31:09;;;;;;;27.25;4.93;;;;;;;;;;4972766;28;92552;-70
2022/01/03 13:33:36;;;;;;;26.83;5.07;;;;;;;;;;4972592;28;93752;-70
2022/01/03 13:36:06;;;;;;;29.15;4.45;;;;;;;;;;4981478;28;91801;-68
2022/01/03 13:38:34;;;;;;;25.83;4.78;;;;;;;;;;4972102;28;93029;-70
2022/01/03 13:41:14;;;;;;;14.98;3.70;;;;;;;;;;4980440;28;93831;-70
2022/01/03 13:43:44;;;;;;;23.88;4.82;;;;;;;;;;4975682;28;94970;-70
2022/01/03 13:51:22;;;;;;;25.20;4.90;;;;;;;;;;4979247;28;92921;-70
2022/01/03 13:53:49;;;;;;;13.70;3.60;;;;;;;;;;4976277;28;94020;-71
2022/01/03 13:56:16;;;;;;;27.15;4.47;;;;;;;;;;4972791;28;92480;-70
2022/01/03 13:58:44;;;;;;;21.33;3.33;;;;;;;;;;4972091;28;93668;-70
2022/01/03 14:01:10;;;;;;;22.40;4.47;;;;;;;;;;4979242;28;93721;-70
2022/01/03 14:03:42;;;;;;;24.27;4.63;;;;;;;;;;4979616;28;92531;-70
2022/01/03 14:06:19;;;;;;;22.83;4.65;;;;;;;;;;4972258;28;93987;-70
2022/01/03 14:08:49;;;;;;;24.17;4.45;;;;;;;;;;4970597;28;96587;-68
2022/01/03 14:11:17;;;;;;;18.50;3.95;;;;;;;;;;4977629;28;92506;-70
2022/01/03 14:13:44;;;;;;;18.83;3.20;;;;;;;;;;4979545;28;94638;-68
2022/01/03 14:16:17;;;;;;;20.08;4.80;;;;;;;;;;4979624;28;92651;-69
2022/01/03 14:18:45;;;;;;;13.98;3.25;;;;;;;;;;4983639;28;94194;-69
2022/01/03 14:21:12;;;;;;;16.63;3.50;;;;;;;;;;4979874;28;95151;-69
2022/01/03 14:23:43;;;;;;;12.88;3.22;;;;;;;;;;4984875;28;92619;-69
2022/01/03 14:26:11;;;;;;;17.88;3.35;;;;;;;;;;4988271;28;95585;-70
2022/01/03 14:29:11;;;;;;;14.30;4.55;;;;;;;;;;4988138;28;93950;-69
2022/01/03 14:31:56;;;;;;;18.30;4.13;;;;;;;;;;4982969;28;92890;-69
2022/01/03 14:34:22;;;;;;;15.07;2.72;;;;;;;;;;4989542;28;96856;-69
2022/01/03 14:36:49;;;;;;;18.50;3.33;;;;;;;;;;4985649;28;93994;-69
2022/01/03 14:39:16;;;;;;;17.33;3.83;;;;;;;;;;4986258;28;94248;-69
2022/01/03 14:41:42;;;;;;;17.10;3.90;;;;;;;;;;4990367;28;93912;-69
2022/01/03 14:44:09;;;;;;;20.20;4.00;;;;;;;;;;4982567;28;92705;-69
2022/01/03 14:46:37;;;;;;;18.92;3.63;;;;;;;;;;4982663;28;93332;-69
2022/01/03 14:49:04;;;;;;;16.23;3.78;;;;;;;;;;4974482;28;94080;-69
2022/01/03 14:51:33;;;;;;;15.48;3.50;;;;;;;;;;4982301;28;91820;-69
2022/01/03 14:54:13;;;;;;;14.88;3.60;;;;;;;;;;4988174;28;92611;-69
2022/01/03 14:56:39;;;;;;;15.10;3.15;;;;;;;;;;4988747;28;93457;-69
2022/01/03 14:59:12;;;;;;;13.77;3.25;;;;;;;;;;4983018;28;97065;-69
2022/01/03 15:01:39;;;;;;;10.93;3.40;;;;;;;;;;4981446;28;93610;-69
2022/01/03 15:04:05;;;;;;;20.45;3.75;;;;;;;;;;4976352;28;92624;-69